Terminal Aerodrome Forecast
Issued by NWS Amarillo, TX

Home | Current Version | Previous Version | Text Only | Print | Product List | Glossary On
Versions: 1 2 3 4 5 6 7 8 9 10 11 12 13 14 15 16 17
224
FTUS44 KAMA 311140
TAFGUY
TAF
KGUY 311140Z 3112/0112 VRB03KT P6SM FEW050 OVC100
      TEMPO 3112/3115 6SM -SHRA
     FM311700 04006KT P6SM VCSH SCT015 BKN080 OVC200 PROB30
      3121/3124 TS BKN025CB
     FM010000 10005KT P6SM BKN100 PROB30 0100/0102 TS BKN025CB=

USA.gov is the U.S. government's official web portal to all federal, state and local government web resources and services.